createdAt,value
2023-11-07T00:04:48.842Z,12.68
2023-11-07T00:09:51.408Z,12.58
2023-11-07T00:14:53.274Z,12.54
2023-11-07T00:19:57.896Z,12.44
2023-11-07T00:25:00.261Z,12.42
2023-11-07T00:30:02.186Z,12.39
2023-11-07T00:35:04.329Z,12.31
2023-11-07T00:40:08.001Z,12.25
2023-11-07T00:45:10.087Z,12.19
2023-11-07T00:50:12.124Z,12.06
2023-11-07T00:55:13.956Z,12.05
2023-11-07T01:00:16.621Z,12.01
2023-11-07T01:05:19.704Z,11.97
2023-11-07T01:10:22.504Z,12.00
2023-11-07T01:15:24.525Z,12.04
2023-11-07T01:20:26.336Z,12.02
2023-11-07T01:25:30.795Z,12.05
2023-11-07T01:30:32.753Z,12.07
2023-11-07T01:35:34.591Z,12.07
2023-11-07T01:40:36.441Z,12.08
2023-11-07T01:45:38.278Z,12.08
2023-11-07T01:50:41.179Z,12.12
2023-11-07T01:55:43.330Z,12.11
2023-11-07T02:00:45.428Z,12.18
2023-11-07T02:05:47.265Z,12.13
2023-11-07T02:10:49.295Z,12.15
2023-11-07T02:15:51.220Z,12.24
2023-11-07T02:20:53.154Z,12.29
2023-11-07T02:25:55.199Z,12.38
2023-11-07T02:30:58.195Z,12.45
2023-11-07T02:36:01.444Z,12.51
2023-11-07T02:41:03.397Z,12.51
2023-11-07T02:46:05.506Z,12.52
2023-11-07T02:51:07.429Z,12.49
2023-11-07T02:56:09.535Z,12.44
2023-11-07T03:01:11.507Z,12.44
2023-11-07T03:06:13.444Z,12.46
2023-11-07T03:11:15.449Z,12.50
2023-11-07T03:16:17.278Z,12.56
2023-11-07T03:21:20.253Z,12.59
2023-11-07T03:26:22.116Z,12.62
2023-11-07T03:31:23.942Z,12.67
2023-11-07T03:36:25.765Z,12.72
2023-11-07T03:41:29.090Z,12.71
2023-11-07T03:46:31.177Z,12.68
2023-11-07T03:51:33.104Z,12.67
2023-11-07T03:56:35.618Z,12.69
2023-11-07T04:01:38.293Z,12.69
2023-11-07T04:06:40.083Z,12.66
2023-11-07T04:11:41.908Z,12.65
2023-11-07T04:16:43.747Z,12.67
2023-11-07T04:21:45.562Z,12.68
2023-11-07T04:26:47.420Z,12.69
2023-11-07T04:31:49.307Z,12.70
2023-11-07T04:36:54.788Z,12.69
2023-11-07T04:41:56.720Z,12.62
2023-11-07T04:46:58.817Z,12.52
2023-11-07T04:52:03.170Z,12.51
2023-11-07T04:57:08.816Z,12.49
2023-11-07T05:02:11.399Z,12.52
2023-11-07T05:07:15.014Z,12.53
2023-11-07T05:12:16.966Z,12.53
2023-11-07T05:17:18.821Z,12.48
2023-11-07T05:22:21.306Z,12.49
2023-11-07T05:27:23.099Z,12.44
2023-11-07T05:32:25.003Z,12.39
2023-11-07T05:37:27.141Z,12.38
2023-11-07T05:42:28.945Z,12.35
2023-11-07T05:47:31.042Z,12.24
2023-11-07T05:52:33.521Z,12.15
2023-11-07T05:57:37.036Z,12.04
2023-11-07T06:02:39.473Z,11.92
2023-11-07T06:07:41.429Z,11.86
2023-11-07T06:12:43.281Z,11.83
2023-11-07T06:17:45.263Z,11.79
2023-11-07T06:22:48.480Z,11.76
2023-11-07T06:27:52.357Z,11.78
2023-11-07T06:32:54.401Z,11.78
2023-11-07T06:37:56.419Z,11.89
2023-11-07T06:42:59.144Z,11.97
2023-11-07T06:48:01.220Z,12.06
2023-11-07T06:53:03.141Z,12.20
2023-11-07T06:58:05.628Z,12.36
2023-11-07T07:03:07.989Z,12.47
2023-11-07T07:08:09.878Z,12.66
2023-11-07T07:13:11.876Z,12.85
2023-11-07T07:18:19.589Z,13.06
2023-11-07T07:23:26.035Z,13.20
2023-11-07T07:28:28.135Z,13.34
2023-11-07T07:33:30.019Z,13.39
2023-11-07T07:38:33.586Z,13.52
2023-11-07T07:43:35.519Z,13.63
2023-11-07T07:48:37.538Z,13.84
2023-11-07T07:53:39.437Z,13.95
2023-11-07T07:58:42.725Z,13.98
2023-11-07T08:03:44.800Z,14.02
2023-11-07T08:08:47.102Z,14.12
2023-11-07T08:13:49.009Z,14.21
2023-11-07T08:18:51.037Z,14.34
2023-11-07T08:23:53.000Z,14.44
2023-11-07T08:28:54.822Z,14.60
2023-11-07T08:33:57.590Z,14.72
2023-11-07T08:38:59.466Z,14.74
2023-11-07T08:44:01.285Z,14.80
2023-11-07T08:49:03.374Z,14.66
2023-11-07T08:54:05.377Z,14.70
2023-11-07T08:59:09.752Z,14.84
2023-11-07T09:04:11.594Z,15.01
2023-11-07T09:09:16.782Z,15.14
2023-11-07T09:14:20.215Z,15.08
2023-11-07T09:19:25.061Z,14.77
2023-11-07T09:24:27.166Z,14.60
2023-11-07T09:29:28.982Z,14.70
2023-11-07T09:34:32.151Z,14.96
2023-11-07T09:39:34.873Z,15.13
2023-11-07T09:44:39.723Z,15.41
2023-11-07T09:49:42.199Z,15.47
2023-11-07T09:54:49.181Z,15.59
2023-11-07T10:00:00.243Z,15.74
2023-11-07T10:05:04.375Z,15.78
2023-11-07T10:10:08.090Z,15.89
2023-11-07T10:15:17.480Z,15.86
2023-11-07T10:20:20.578Z,15.55
2023-11-07T10:25:37.065Z,15.46
2023-11-07T10:30:47.863Z,15.69
2023-11-07T10:35:53.278Z,15.75
2023-11-07T10:40:55.188Z,15.77
2023-11-07T10:46:00.635Z,15.83
2023-11-07T10:51:06.417Z,15.87
2023-11-07T10:56:16.438Z,15.96
2023-11-07T11:01:20.461Z,15.97
2023-11-07T11:06:26.015Z,15.94
2023-11-07T11:11:32.477Z,16.13
2023-11-07T11:16:35.179Z,16.05
2023-11-07T11:21:58.849Z,16.17
2023-11-07T11:27:22.825Z,16.14
2023-11-07T11:32:28.492Z,16.10
2023-11-07T11:38:17.555Z,15.86
2023-11-07T11:43:33.242Z,15.70
2023-11-07T11:48:56.686Z,15.48
2023-11-07T11:54:00.513Z,15.33
2023-11-07T11:59:12.508Z,15.46
2023-11-07T12:04:35.150Z,15.64
2023-11-07T12:09:38.322Z,15.64
2023-11-07T12:14:50.323Z,15.47
2023-11-07T12:20:08.118Z,15.24
2023-11-07T12:25:18.073Z,15.19
2023-11-07T12:30:20.188Z,15.21
2023-11-07T12:35:23.208Z,15.16
2023-11-07T12:40:25.683Z,15.14
2023-11-07T12:45:33.115Z,15.23
2023-11-07T12:50:44.308Z,15.29
2023-11-07T12:55:53.697Z,15.36
2023-11-07T13:00:57.520Z,15.31
2023-11-07T13:06:06.632Z,15.22
2023-11-07T13:11:22.216Z,15.25
2023-11-07T13:16:24.548Z,15.24
2023-11-07T13:21:27.009Z,16.02
2023-11-07T13:26:30.406Z,16.51
2023-11-07T13:31:33.607Z,16.06
2023-11-07T13:36:35.665Z,15.60
2023-11-07T13:41:37.544Z,15.33
2023-11-07T13:46:40.200Z,16.63
2023-11-07T13:51:42.708Z,17.04
2023-11-07T13:56:44.712Z,16.66
2023-11-07T14:01:46.578Z,16.25
2023-11-07T14:06:48.701Z,15.93
2023-11-07T14:11:51.416Z,15.65
2023-11-07T14:16:53.671Z,15.40
2023-11-07T14:21:56.510Z,15.22
2023-11-07T14:26:58.328Z,15.13
2023-11-07T14:32:00.165Z,14.99
2023-11-07T14:37:02.025Z,14.84
2023-11-07T14:42:07.707Z,14.67
2023-11-07T14:47:12.191Z,14.63
2023-11-07T14:52:14.052Z,14.55
2023-11-07T14:57:16.194Z,14.50
2023-11-07T15:02:25.413Z,14.47
2023-11-07T15:07:29.770Z,14.48
2023-11-07T15:12:31.680Z,14.39
2023-11-07T15:17:33.582Z,14.23
2023-11-07T15:22:36.555Z,14.20
2023-11-07T15:27:45.401Z,14.20
2023-11-07T15:32:48.850Z,14.22
2023-11-07T15:37:50.948Z,14.18
2023-11-07T15:42:52.773Z,14.12
2023-11-07T15:47:54.777Z,14.04
2023-11-07T15:53:07.390Z,14.01
2023-11-07T15:58:11.545Z,14.00
2023-11-07T16:03:15.922Z,13.89
2023-11-07T16:08:18.976Z,13.81
2023-11-07T16:13:21.078Z,13.76
2023-11-07T16:18:24.038Z,13.78
2023-11-07T16:23:26.559Z,13.72
2023-11-07T16:28:28.817Z,13.74
2023-11-07T16:33:30.704Z,13.61
2023-11-07T16:38:32.635Z,13.56
2023-11-07T16:43:34.903Z,13.57
2023-11-07T16:48:36.795Z,13.68
2023-11-07T16:53:40.107Z,13.77
2023-11-07T16:58:42.060Z,13.81
2023-11-07T17:03:44.813Z,13.86
2023-11-07T17:08:47.154Z,13.79
2023-11-07T17:13:48.981Z,13.72
2023-11-07T17:18:50.909Z,13.50
2023-11-07T17:23:53.481Z,13.46
2023-11-07T17:28:57.383Z,13.51
2023-11-07T17:33:59.320Z,13.48
2023-11-07T17:39:02.303Z,13.38
2023-11-07T17:44:04.984Z,13.36
2023-11-07T17:49:08.155Z,13.30
2023-11-07T17:54:10.886Z,13.13
2023-11-07T17:59:13.450Z,13.05
2023-11-07T18:04:16.067Z,13.10
2023-11-07T18:09:19.723Z,13.07
2023-11-07T18:14:23.506Z,13.07
2023-11-07T18:19:25.859Z,13.02
2023-11-07T18:24:28.414Z,12.95
2023-11-07T18:29:32.369Z,12.91
2023-11-07T18:34:34.928Z,12.83
2023-11-07T18:39:37.664Z,12.88
2023-11-07T18:44:41.852Z,12.91
2023-11-07T18:49:43.926Z,12.86
2023-11-07T18:54:45.905Z,12.81
2023-11-07T18:59:47.699Z,12.81
2023-11-07T19:04:49.648Z,12.78
2023-11-07T19:09:52.038Z,12.76
2023-11-07T19:14:55.705Z,12.76
2023-11-07T19:19:57.549Z,12.72
2023-11-07T19:24:59.420Z,12.71
2023-11-07T19:30:01.414Z,12.68
2023-11-07T19:35:06.673Z,12.67
2023-11-07T19:40:09.140Z,12.55
2023-11-07T19:45:11.237Z,12.47
2023-11-07T19:50:14.310Z,12.45
2023-11-07T19:55:16.753Z,12.39
2023-11-07T20:00:25.070Z,12.29
2023-11-07T20:05:30.525Z,12.27
2023-11-07T20:10:32.612Z,12.26
2023-11-07T20:15:34.463Z,12.22
2023-11-07T20:20:36.616Z,12.18
2023-11-07T20:25:38.463Z,12.12
2023-11-07T20:30:40.296Z,12.02
2023-11-07T20:35:42.683Z,12.01
2023-11-07T20:40:44.615Z,12.06
2023-11-07T20:45:47.229Z,12.07
2023-11-07T20:50:49.230Z,12.12
2023-11-07T20:55:51.164Z,12.18
2023-11-07T21:00:53.424Z,12.17
2023-11-07T21:05:55.291Z,12.15
2023-11-07T21:10:58.502Z,12.20
2023-11-07T21:16:00.357Z,12.12
2023-11-07T21:21:02.817Z,12.02
2023-11-07T21:26:05.490Z,12.00
2023-11-07T21:31:07.474Z,11.88
2023-11-07T21:36:10.298Z,11.81
2023-11-07T21:41:12.538Z,11.82
2023-11-07T21:46:14.568Z,11.80
2023-11-07T21:51:17.191Z,11.75
2023-11-07T21:56:30.444Z,11.75
2023-11-07T22:01:34.603Z,11.68
2023-11-07T22:06:37.335Z,11.65
2023-11-07T22:11:39.230Z,11.55
2023-11-07T22:16:41.989Z,11.44
2023-11-07T22:21:47.262Z,11.40
2023-11-07T22:26:50.186Z,11.29
2023-11-07T22:31:52.529Z,11.15
2023-11-07T22:36:54.347Z,11.06
2023-11-07T22:41:56.877Z,10.95
2023-11-07T22:46:58.667Z,10.95
2023-11-07T22:52:00.476Z,10.87
2023-11-07T22:57:03.089Z,10.78
2023-11-07T23:02:05.837Z,10.79
2023-11-07T23:07:07.848Z,10.84
2023-11-07T23:12:09.820Z,10.78
2023-11-07T23:17:12.643Z,10.78
2023-11-07T23:22:14.506Z,10.76
2023-11-07T23:27:16.441Z,10.68
2023-11-07T23:32:18.277Z,10.64
2023-11-07T23:37:21.865Z,10.61
2023-11-07T23:42:23.915Z,10.62
2023-11-07T23:47:25.995Z,10.64
2023-11-07T23:52:27.833Z,10.67
2023-11-07T23:57:29.849Z,10.66
